Aérodrome :
LOGIN :

S'inscrire | Disclaimer

   EN    FR    IT 

 










Légende :    VFR   VFR Marginal   IFR   IFR Intensif   IFR Très Intensif
Visi : 
Plafond : 
>= 8 km
>= 3000ft
5 à 8 km
1000 à 3000 ft
1500m à 5 km
500 à 1000 ft
800 à 1500m
200 à 500 ft
< 800m
< 200 ft
Symboles :   Orages  Brouillard  Fortes neiges  Fortes précipitations  Vent > 20 kt
SIGMETs :   Divers  Orages  Givrage  Turbulence  Onde Orograph.  Cendres Volcan.






- Altitude de l'aérodrome : 433 ft


LFOC - Chateaudun

DERNIER METAR :
  • 122030Z AUTO 23012KT 9999 ////// 08/07 Q0987

METARs EXPIRÉS :
  • 122000Z AUTO 24015KT 9999 ////// 08/07 Q0988
  • 121930Z AUTO 24010KT 9999 ////// 08/07 Q0988
  • 121900Z AUTO 25014KT 9999 ////// 08/07 Q0988
  • 121830Z AUTO 25018KT 9999 ////// 09/08 Q0988
  • 121800Z AUTO 21014KT 9999 ////// 08/08 Q0987

TAF AMD TAF LFOC
Valide du 12 à 15h jusqu'au 13 à 15h UTC


121406Z 1215/1315 18010G20KT 9999 OVC008
TEMPO 1215/1218 21020G30KT 4900 -RA
BECMG 1222/1224 24020G40KT 4000 RA
BECMG 1301/1303 9999 NSW
TEMPO 1304/1315 4900 -SHRA BKN020TCU
PROB40
TEMPO 1305/1312 27025G45KT BKN025CB



MET'MAP, la Météo Aéronautique d'un coup d'oeil ! - Copyright ORBIFLY Décembre 2007 - Disclaimer

ORBIFLY MET'MAP TEAM :

Programmation & Développement : Alexandra Zaïnal
Sur une idée originale de : Baudouin d'Aumeries
Assistance à la programmation : Marc-Olivier Méhu
Soutien technique & logistique : Manuel Goepfert

Contact : metmap@orbifly.com




SOURCES & CREDITS :

   NOAA